sensor_id;sensor_type;location;lat;lon;timestamp;temperature;humidity
44487;DHT22;30191;50.908;6.962;2024-03-17T00:02:20;9.80;99.90
44487;DHT22;30191;50.908;6.962;2024-03-17T00:04:46;9.90;99.90
44487;DHT22;30191;50.908;6.962;2024-03-17T00:07:12;10.00;99.90
44487;DHT22;30191;50.908;6.962;2024-03-17T00:09:39;10.10;99.90
44487;DHT22;30191;50.908;6.962;2024-03-17T00:12:05;10.00;99.90
44487;DHT22;30191;50.908;6.962;2024-03-17T00:14:31;9.90;99.90
44487;DHT22;30191;50.908;6.962;2024-03-17T00:16:57;9.90;99.90
44487;DHT22;30191;50.908;6.962;2024-03-17T00:19:26;9.80;99.90
44487;DHT22;30191;50.908;6.962;2024-03-17T00:21:51;9.80;99.90
44487;DHT22;30191;50.908;6.962;2024-03-17T00:24:18;9.80;99.90
44487;DHT22;30191;50.908;6.962;2024-03-17T00:26:43;9.70;99.90
44487;DHT22;30191;50.908;6.962;2024-03-17T00:29:10;9.70;99.90
44487;DHT22;30191;50.908;6.962;2024-03-17T00:31:35;9.70;99.90
44487;DHT22;30191;50.908;6.962;2024-03-17T00:34:02;9.70;99.90
44487;DHT22;30191;50.908;6.962;2024-03-17T00:36:28;9.70;99.90
44487;DHT22;30191;50.908;6.962;2024-03-17T00:38:54;9.70;99.90
44487;DHT22;30191;50.908;6.962;2024-03-17T00:41:20;9.70;99.90
44487;DHT22;30191;50.908;6.962;2024-03-17T00:43:47;9.70;99.90
44487;DHT22;30191;50.908;6.962;2024-03-17T00:46:12;9.60;99.90
44487;DHT22;30191;50.908;6.962;2024-03-17T00:48:38;9.60;99.90
44487;DHT22;30191;50.908;6.962;2024-03-17T00:51:04;9.60;99.90
44487;DHT22;30191;50.908;6.962;2024-03-17T00:53:30;9.60;99.90
44487;DHT22;30191;50.908;6.962;2024-03-17T00:55:56;9.60;99.90
44487;DHT22;30191;50.908;6.962;2024-03-17T00:58:26;9.60;99.90
44487;DHT22;30191;50.908;6.962;2024-03-17T01:00:52;9.50;99.90
44487;DHT22;30191;50.908;6.962;2024-03-17T01:03:18;9.60;99.90
44487;DHT22;30191;50.908;6.962;2024-03-17T01:05:44;9.60;99.90
44487;DHT22;30191;50.908;6.962;2024-03-17T01:08:16;9.50;99.90
44487;DHT22;30191;50.908;6.962;2024-03-17T01:10:42;9.50;99.90
44487;DHT22;30191;50.908;6.962;2024-03-17T01:13:09;9.50;99.90
44487;DHT22;30191;50.908;6.962;2024-03-17T01:15:38;9.50;99.90
44487;DHT22;30191;50.908;6.962;2024-03-17T01:18:05;9.50;99.90
44487;DHT22;30191;50.908;6.962;2024-03-17T01:20:40;9.50;99.90
44487;DHT22;30191;50.908;6.962;2024-03-17T01:23:06;9.40;99.90
44487;DHT22;30191;50.908;6.962;2024-03-17T01:25:33;9.40;99.90
44487;DHT22;30191;50.908;6.962;2024-03-17T01:28:05;9.40;99.90
44487;DHT22;30191;50.908;6.962;2024-03-17T01:30:32;9.40;99.90
44487;DHT22;30191;50.908;6.962;2024-03-17T01:32:58;9.30;99.90
44487;DHT22;30191;50.908;6.962;2024-03-17T01:35:27;9.30;99.90
44487;DHT22;30191;50.908;6.962;2024-03-17T01:37:52;9.30;99.90
44487;DHT22;30191;50.908;6.962;2024-03-17T01:40:18;9.30;99.90
44487;DHT22;30191;50.908;6.962;2024-03-17T01:42:44;9.30;99.90
44487;DHT22;30191;50.908;6.962;2024-03-17T01:45:28;9.30;99.90
44487;DHT22;30191;50.908;6.962;2024-03-17T01:47:54;9.30;99.90
44487;DHT22;30191;50.908;6.962;2024-03-17T01:50:24;9.30;99.90
44487;DHT22;30191;50.908;6.962;2024-03-17T01:52:55;9.30;99.90
44487;DHT22;30191;50.908;6.962;2024-03-17T01:55:21;9.30;99.90
44487;DHT22;30191;50.908;6.962;2024-03-17T01:57:49;9.20;99.90
44487;DHT22;30191;50.908;6.962;2024-03-17T02:00:15;9.20;99.90
44487;DHT22;30191;50.908;6.962;2024-03-17T02:02:41;9.20;99.90
44487;DHT22;30191;50.908;6.962;2024-03-17T02:05:07;9.10;99.90
44487;DHT22;30191;50.908;6.962;2024-03-17T02:07:32;9.10;99.90
44487;DHT22;30191;50.908;6.962;2024-03-17T02:09:58;9.10;99.90
44487;DHT22;30191;50.908;6.962;2024-03-17T02:12:24;9.10;99.90
44487;DHT22;30191;50.908;6.962;2024-03-17T02:14:50;9.10;99.90
44487;DHT22;30191;50.908;6.962;2024-03-17T02:17:16;9.10;99.90
44487;DHT22;30191;50.908;6.962;2024-03-17T02:19:42;9.10;99.90
44487;DHT22;30191;50.908;6.962;2024-03-17T02:22:16;9.10;99.90
44487;DHT22;30191;50.908;6.962;2024-03-17T02:24:43;9.10;99.90
44487;DHT22;30191;50.908;6.962;2024-03-17T02:27:08;9.00;99.90
44487;DHT22;30191;50.908;6.962;2024-03-17T02:29:35;9.00;99.90
44487;DHT22;30191;50.908;6.962;2024-03-17T02:32:03;9.00;99.90
44487;DHT22;30191;50.908;6.962;2024-03-17T02:34:33;9.00;99.90
44487;DHT22;30191;50.908;6.962;2024-03-17T02:36:59;9.00;99.90
44487;DHT22;30191;50.908;6.962;2024-03-17T02:39:25;8.90;99.90
44487;DHT22;30191;50.908;6.962;2024-03-17T02:42:04;8.80;99.90
44487;DHT22;30191;50.908;6.962;2024-03-17T02:44:34;8.80;99.90
44487;DHT22;30191;50.908;6.962;2024-03-17T02:47:01;8.90;99.90
44487;DHT22;30191;50.908;6.962;2024-03-17T02:49:28;8.90;99.90
44487;DHT22;30191;50.908;6.962;2024-03-17T02:52:01;8.80;99.90
44487;DHT22;30191;50.908;6.962;2024-03-17T02:54:26;8.80;99.90
44487;DHT22;30191;50.908;6.962;2024-03-17T02:56:52;8.80;99.90
44487;DHT22;30191;50.908;6.962;2024-03-17T02:59:17;8.80;99.90
44487;DHT22;30191;50.908;6.962;2024-03-17T03:01:43;8.80;99.90
44487;DHT22;30191;50.908;6.962;2024-03-17T03:04:10;8.80;99.90
44487;DHT22;30191;50.908;6.962;2024-03-17T03:06:36;8.70;99.90
44487;DHT22;30191;50.908;6.962;2024-03-17T03:09:02;8.70;99.90
44487;DHT22;30191;50.908;6.962;2024-03-17T03:11:30;8.70;99.90
44487;DHT22;30191;50.908;6.962;2024-03-17T03:13:56;8.70;99.90
44487;DHT22;30191;50.908;6.962;2024-03-17T03:16:22;8.60;99.90
44487;DHT22;30191;50.908;6.962;2024-03-17T03:18:50;8.60;99.90
44487;DHT22;30191;50.908;6.962;2024-03-17T03:21:16;8.60;99.90
44487;DHT22;30191;50.908;6.962;2024-03-17T03:23:44;8.60;99.90
44487;DHT22;30191;50.908;6.962;2024-03-17T03:26:10;8.60;99.90
44487;DHT22;30191;50.908;6.962;2024-03-17T03:28:36;8.50;99.90
44487;DHT22;30191;50.908;6.962;2024-03-17T03:31:02;8.50;99.90
44487;DHT22;30191;50.908;6.962;2024-03-17T03:33:28;8.50;99.90
44487;DHT22;30191;50.908;6.962;2024-03-17T03:35:53;8.50;99.90
44487;DHT22;30191;50.908;6.962;2024-03-17T03:38:21;8.50;99.90
44487;DHT22;30191;50.908;6.962;2024-03-17T03:40:50;8.50;99.90
44487;DHT22;30191;50.908;6.962;2024-03-17T03:43:17;8.50;99.90
44487;DHT22;30191;50.908;6.962;2024-03-17T03:45:43;8.50;99.90
44487;DHT22;30191;50.908;6.962;2024-03-17T03:48:09;8.50;99.90
44487;DHT22;30191;50.908;6.962;2024-03-17T03:50:35;8.50;99.90
44487;DHT22;30191;50.908;6.962;2024-03-17T03:53:01;8.50;99.90
44487;DHT22;30191;50.908;6.962;2024-03-17T03:55:26;8.50;99.90
44487;DHT22;30191;50.908;6.962;2024-03-17T03:57:52;8.50;99.90
44487;DHT22;30191;50.908;6.962;2024-03-17T04:00:21;8.50;99.90
44487;DHT22;30191;50.908;6.962;2024-03-17T04:02:51;8.50;99.90
44487;DHT22;30191;50.908;6.962;2024-03-17T04:05:20;8.50;99.90
44487;DHT22;30191;50.908;6.962;2024-03-17T04:07:47;8.50;99.90
44487;DHT22;30191;50.908;6.962;2024-03-17T04:10:14;8.50;99.90
44487;DHT22;30191;50.908;6.962;2024-03-17T04:12:41;8.40;99.90
44487;DHT22;30191;50.908;6.962;2024-03-17T04:15:07;8.40;99.90
44487;DHT22;30191;50.908;6.962;2024-03-17T04:17:36;8.50;99.90
44487;DHT22;30191;50.908;6.962;2024-03-17T04:20:03;8.40;99.90
44487;DHT22;30191;50.908;6.962;2024-03-17T04:22:30;8.40;99.90
44487;DHT22;30191;50.908;6.962;2024-03-17T04:24:56;8.40;99.90
44487;DHT22;30191;50.908;6.962;2024-03-17T04:27:31;8.50;99.90
44487;DHT22;30191;50.908;6.962;2024-03-17T04:29:58;8.40;99.90
44487;DHT22;30191;50.908;6.962;2024-03-17T04:32:24;8.40;99.90
44487;DHT22;30191;50.908;6.962;2024-03-17T04:34:52;8.40;99.90
44487;DHT22;30191;50.908;6.962;2024-03-17T04:37:18;8.40;99.90
44487;DHT22;30191;50.908;6.962;2024-03-17T04:39:45;8.50;99.90
44487;DHT22;30191;50.908;6.962;2024-03-17T04:42:12;8.40;99.90
44487;DHT22;30191;50.908;6.962;2024-03-17T04:44:49;8.40;99.90
44487;DHT22;30191;50.908;6.962;2024-03-17T04:47:14;8.50;99.90
44487;DHT22;30191;50.908;6.962;2024-03-17T04:49:41;8.50;99.90
44487;DHT22;30191;50.908;6.962;2024-03-17T04:52:09;8.40;99.90
44487;DHT22;30191;50.908;6.962;2024-03-17T04:54:35;8.50;99.90
44487;DHT22;30191;50.908;6.962;2024-03-17T04:57:01;8.50;99.90
44487;DHT22;30191;50.908;6.962;2024-03-17T04:59:27;8.50;99.90
44487;DHT22;30191;50.908;6.962;2024-03-17T05:01:53;8.50;99.90
44487;DHT22;30191;50.908;6.962;2024-03-17T05:04:19;8.50;99.90
44487;DHT22;30191;50.908;6.962;2024-03-17T05:06:45;8.50;99.90
44487;DHT22;30191;50.908;6.962;2024-03-17T05:09:15;8.50;99.90
44487;DHT22;30191;50.908;6.962;2024-03-17T05:11:41;8.50;99.90
44487;DHT22;30191;50.908;6.962;2024-03-17T05:14:07;8.50;99.90
44487;DHT22;30191;50.908;6.962;2024-03-17T05:16:33;8.50;99.90
44487;DHT22;30191;50.908;6.962;2024-03-17T05:18:59;8.50;99.90
44487;DHT22;30191;50.908;6.962;2024-03-17T05:21:25;8.50;99.90
44487;DHT22;30191;50.908;6.962;2024-03-17T05:23:51;8.50;99.90
44487;DHT22;30191;50.908;6.962;2024-03-17T05:26:17;8.40;99.90
44487;DHT22;30191;50.908;6.962;2024-03-17T05:28:43;8.40;99.90
44487;DHT22;30191;50.908;6.962;2024-03-17T05:31:09;8.40;99.90
44487;DHT22;30191;50.908;6.962;2024-03-17T05:33:35;8.40;99.90
44487;DHT22;30191;50.908;6.962;2024-03-17T05:36:02;8.40;99.90
44487;DHT22;30191;50.908;6.962;2024-03-17T05:38:29;8.40;99.90
44487;DHT22;30191;50.908;6.962;2024-03-17T05:41:05;8.40;99.90
44487;DHT22;30191;50.908;6.962;2024-03-17T05:43:35;8.40;99.90
44487;DHT22;30191;50.908;6.962;2024-03-17T05:46:05;8.30;99.90
44487;DHT22;30191;50.908;6.962;2024-03-17T05:48:35;8.30;99.90
44487;DHT22;30191;50.908;6.962;2024-03-17T05:51:05;8.30;99.90
44487;DHT22;30191;50.908;6.962;2024-03-17T05:53:31;8.30;99.90
44487;DHT22;30191;50.908;6.962;2024-03-17T05:55:59;8.30;99.90
44487;DHT22;30191;50.908;6.962;2024-03-17T05:58:24;8.30;99.90
44487;DHT22;30191;50.908;6.962;2024-03-17T06:00:50;8.30;99.90
44487;DHT22;30191;50.908;6.962;2024-03-17T06:03:16;8.30;99.90
44487;DHT22;30191;50.908;6.962;2024-03-17T06:05:43;8.30;99.90
44487;DHT22;30191;50.908;6.962;2024-03-17T06:08:12;8.30;99.90
44487;DHT22;30191;50.908;6.962;2024-03-17T06:10:42;8.30;99.90
44487;DHT22;30191;50.908;6.962;2024-03-17T06:13:08;8.30;99.90
44487;DHT22;30191;50.908;6.962;2024-03-17T06:15:39;8.30;99.90
44487;DHT22;30191;50.908;6.962;2024-03-17T06:18:05;8.20;99.90
44487;DHT22;30191;50.908;6.962;2024-03-17T06:20:35;8.20;99.90
44487;DHT22;30191;50.908;6.962;2024-03-17T06:23:00;8.20;99.90
44487;DHT22;30191;50.908;6.962;2024-03-17T06:25:26;8.20;99.90
44487;DHT22;30191;50.908;6.962;2024-03-17T06:27:53;8.20;99.90
44487;DHT22;30191;50.908;6.962;2024-03-17T06:30:31;8.20;99.90
44487;DHT22;30191;50.908;6.962;2024-03-17T06:32:58;8.20;99.90
44487;DHT22;30191;50.908;6.962;2024-03-17T06:35:24;8.20;99.90
44487;DHT22;30191;50.908;6.962;2024-03-17T06:37:52;8.20;99.90
44487;DHT22;30191;50.908;6.962;2024-03-17T06:40:18;8.20;99.90
44487;DHT22;30191;50.908;6.962;2024-03-17T06:42:44;8.20;99.90
44487;DHT22;30191;50.908;6.962;2024-03-17T06:45:10;8.20;99.90
44487;DHT22;30191;50.908;6.962;2024-03-17T06:47:39;8.20;99.90
44487;DHT22;30191;50.908;6.962;2024-03-17T06:50:06;8.20;99.90
44487;DHT22;30191;50.908;6.962;2024-03-17T06:52:36;8.20;99.90
44487;DHT22;30191;50.908;6.962;2024-03-17T06:55:02;8.20;99.90
44487;DHT22;30191;50.908;6.962;2024-03-17T06:57:27;8.20;99.90
44487;DHT22;30191;50.908;6.962;2024-03-17T06:59:53;8.20;99.90
44487;DHT22;30191;50.908;6.962;2024-03-17T07:02:19;8.20;99.90
44487;DHT22;30191;50.908;6.962;2024-03-17T07:04:46;8.30;99.90
44487;DHT22;30191;50.908;6.962;2024-03-17T07:07:12;8.30;99.90
44487;DHT22;30191;50.908;6.962;2024-03-17T07:09:39;8.30;99.90
44487;DHT22;30191;50.908;6.962;2024-03-17T07:12:09;8.40;99.90
44487;DHT22;30191;50.908;6.962;2024-03-17T07:14:35;8.40;99.90
44487;DHT22;30191;50.908;6.962;2024-03-17T07:17:01;8.40;99.90
44487;DHT22;30191;50.908;6.962;2024-03-17T07:19:27;8.50;99.90
44487;DHT22;30191;50.908;6.962;2024-03-17T07:21:52;8.50;99.90
44487;DHT22;30191;50.908;6.962;2024-03-17T07:24:19;8.50;99.90
44487;DHT22;30191;50.908;6.962;2024-03-17T07:26:45;8.50;99.90
44487;DHT22;30191;50.908;6.962;2024-03-17T07:29:10;8.50;99.90
44487;DHT22;30191;50.908;6.962;2024-03-17T07:31:36;8.60;99.90
44487;DHT22;30191;50.908;6.962;2024-03-17T07:34:02;8.70;99.90
44487;DHT22;30191;50.908;6.962;2024-03-17T07:36:28;8.80;99.90
44487;DHT22;30191;50.908;6.962;2024-03-17T07:38:53;8.80;99.90
44487;DHT22;30191;50.908;6.962;2024-03-17T07:41:19;8.90;99.90
44487;DHT22;30191;50.908;6.962;2024-03-17T07:43:45;8.90;99.90
44487;DHT22;30191;50.908;6.962;2024-03-17T07:46:12;8.90;99.90
44487;DHT22;30191;50.908;6.962;2024-03-17T07:48:39;8.90;99.90
44487;DHT22;30191;50.908;6.962;2024-03-17T07:51:10;9.00;99.90
44487;DHT22;30191;50.908;6.962;2024-03-17T07:53:37;9.00;99.90
44487;DHT22;30191;50.908;6.962;2024-03-17T07:58:35;9.10;99.90
44487;DHT22;30191;50.908;6.962;2024-03-17T08:01:03;9.10;99.90
44487;DHT22;30191;50.908;6.962;2024-03-17T08:03:30;9.20;99.90
44487;DHT22;30191;50.908;6.962;2024-03-17T08:05:57;9.20;99.90
44487;DHT22;30191;50.908;6.962;2024-03-17T08:08:23;9.30;99.90
44487;DHT22;30191;50.908;6.962;2024-03-17T08:10:49;9.40;99.90
44487;DHT22;30191;50.908;6.962;2024-03-17T08:13:19;9.50;99.90
44487;DHT22;30191;50.908;6.962;2024-03-17T08:15:45;9.50;99.90
44487;DHT22;30191;50.908;6.962;2024-03-17T08:18:12;9.60;99.90
44487;DHT22;30191;50.908;6.962;2024-03-17T08:20:41;9.70;99.90
44487;DHT22;30191;50.908;6.962;2024-03-17T08:23:12;9.80;99.90
44487;DHT22;30191;50.908;6.962;2024-03-17T08:25:38;9.80;99.90
44487;DHT22;30191;50.908;6.962;2024-03-17T08:28:07;9.80;99.90
44487;DHT22;30191;50.908;6.962;2024-03-17T08:30:33;9.90;99.90
44487;DHT22;30191;50.908;6.962;2024-03-17T08:33:00;9.90;99.90
44487;DHT22;30191;50.908;6.962;2024-03-17T08:35:25;10.00;99.90
44487;DHT22;30191;50.908;6.962;2024-03-17T08:37:51;10.00;99.90
44487;DHT22;30191;50.908;6.962;2024-03-17T08:40:22;10.10;99.90
44487;DHT22;30191;50.908;6.962;2024-03-17T08:42:49;10.20;99.90
44487;DHT22;30191;50.908;6.962;2024-03-17T08:45:14;10.30;99.90
44487;DHT22;30191;50.908;6.962;2024-03-17T08:47:41;10.30;99.90
44487;DHT22;30191;50.908;6.962;2024-03-17T08:50:07;10.30;99.90
44487;DHT22;30191;50.908;6.962;2024-03-17T08:52:36;10.40;99.90
44487;DHT22;30191;50.908;6.962;2024-03-17T08:55:02;10.50;99.90
44487;DHT22;30191;50.908;6.962;2024-03-17T08:57:29;10.50;99.90
44487;DHT22;30191;50.908;6.962;2024-03-17T08:59:55;10.50;99.90
44487;DHT22;30191;50.908;6.962;2024-03-17T09:02:21;10.60;99.90
44487;DHT22;30191;50.908;6.962;2024-03-17T09:04:49;10.60;99.90
44487;DHT22;30191;50.908;6.962;2024-03-17T09:07:15;10.80;99.90
44487;DHT22;30191;50.908;6.962;2024-03-17T09:09:43;10.70;99.90
44487;DHT22;30191;50.908;6.962;2024-03-17T09:12:09;10.80;99.90
44487;DHT22;30191;50.908;6.962;2024-03-17T09:14:35;11.00;99.90
44487;DHT22;30191;50.908;6.962;2024-03-17T09:17:01;11.10;99.90
44487;DHT22;30191;50.908;6.962;2024-03-17T09:19:27;11.10;99.90
44487;DHT22;30191;50.908;6.962;2024-03-17T09:21:54;11.00;99.90
44487;DHT22;30191;50.908;6.962;2024-03-17T09:24:20;11.10;99.90
44487;DHT22;30191;50.908;6.962;2024-03-17T09:26:46;11.10;99.90
44487;DHT22;30191;50.908;6.962;2024-03-17T09:29:12;11.10;99.90
44487;DHT22;30191;50.908;6.962;2024-03-17T09:31:38;11.20;99.90
44487;DHT22;30191;50.908;6.962;2024-03-17T09:34:07;11.20;99.90
44487;DHT22;30191;50.908;6.962;2024-03-17T09:36:33;11.30;99.90
44487;DHT22;30191;50.908;6.962;2024-03-17T09:38:58;11.30;99.90
44487;DHT22;30191;50.908;6.962;2024-03-17T09:41:26;11.30;99.90
44487;DHT22;30191;50.908;6.962;2024-03-17T09:43:59;11.40;99.90
44487;DHT22;30191;50.908;6.962;2024-03-17T09:46:25;11.40;99.90
44487;DHT22;30191;50.908;6.962;2024-03-17T09:48:53;11.50;99.90
44487;DHT22;30191;50.908;6.962;2024-03-17T09:51:26;11.50;99.90
44487;DHT22;30191;50.908;6.962;2024-03-17T09:53:52;11.60;99.90
44487;DHT22;30191;50.908;6.962;2024-03-17T09:56:19;11.60;99.90
44487;DHT22;30191;50.908;6.962;2024-03-17T09:58:46;11.70;99.90
44487;DHT22;30191;50.908;6.962;2024-03-17T10:01:12;11.80;99.90
44487;DHT22;30191;50.908;6.962;2024-03-17T10:03:48;11.80;99.90
44487;DHT22;30191;50.908;6.962;2024-03-17T10:06:22;11.90;99.90
44487;DHT22;30191;50.908;6.962;2024-03-17T10:08:49;11.90;99.90
44487;DHT22;30191;50.908;6.962;2024-03-17T10:11:33;12.00;99.90
44487;DHT22;30191;50.908;6.962;2024-03-17T10:14:06;12.00;99.90
44487;DHT22;30191;50.908;6.962;2024-03-17T10:16:34;12.10;99.90
44487;DHT22;30191;50.908;6.962;2024-03-17T10:21:40;12.20;99.90
44487;DHT22;30191;50.908;6.962;2024-03-17T10:26:54;12.30;99.90
44487;DHT22;30191;50.908;6.962;2024-03-17T10:29:27;12.30;99.90
44487;DHT22;30191;50.908;6.962;2024-03-17T10:31:58;12.30;99.90
44487;DHT22;30191;50.908;6.962;2024-03-17T10:34:26;12.30;99.90
44487;DHT22;30191;50.908;6.962;2024-03-17T10:39:32;12.40;99.90
44487;DHT22;30191;50.908;6.962;2024-03-17T10:42:00;12.50;99.90
44487;DHT22;30191;50.908;6.962;2024-03-17T10:44:31;12.60;99.90
44487;DHT22;30191;50.908;6.962;2024-03-17T10:46:58;12.50;99.90
44487;DHT22;30191;50.908;6.962;2024-03-17T10:49:28;12.50;99.90
44487;DHT22;30191;50.908;6.962;2024-03-17T10:51:58;12.60;99.90
44487;DHT22;30191;50.908;6.962;2024-03-17T10:54:25;12.60;99.90
44487;DHT22;30191;50.908;6.962;2024-03-17T10:59:40;12.70;99.90
44487;DHT22;30191;50.908;6.962;2024-03-17T11:02:22;12.70;99.90
44487;DHT22;30191;50.908;6.962;2024-03-17T11:04:56;12.70;99.90
44487;DHT22;30191;50.908;6.962;2024-03-17T11:07:23;12.70;99.90
44487;DHT22;30191;50.908;6.962;2024-03-17T11:09:51;12.80;99.90
44487;DHT22;30191;50.908;6.962;2024-03-17T11:12:48;12.80;99.90
44487;DHT22;30191;50.908;6.962;2024-03-17T11:15:35;12.90;99.90
44487;DHT22;30191;50.908;6.962;2024-03-17T11:20:35;13.00;99.90
44487;DHT22;30191;50.908;6.962;2024-03-17T11:23:01;13.10;99.90
44487;DHT22;30191;50.908;6.962;2024-03-17T11:27:59;13.30;99.90
44487;DHT22;30191;50.908;6.962;2024-03-17T11:41:38;13.90;99.90
44487;DHT22;30191;50.908;6.962;2024-03-17T11:49:27;14.00;99.90
44487;DHT22;30191;50.908;6.962;2024-03-17T11:51:55;14.00;99.90
44487;DHT22;30191;50.908;6.962;2024-03-17T11:54:28;14.00;99.90
44487;DHT22;30191;50.908;6.962;2024-03-17T11:56:56;14.00;99.90
44487;DHT22;30191;50.908;6.962;2024-03-17T11:59:22;14.00;99.90
44487;DHT22;30191;50.908;6.962;2024-03-17T12:01:51;14.10;99.90
44487;DHT22;30191;50.908;6.962;2024-03-17T12:04:18;14.10;99.90
44487;DHT22;30191;50.908;6.962;2024-03-17T12:06:54;14.10;99.90
44487;DHT22;30191;50.908;6.962;2024-03-17T12:09:23;14.10;99.90
44487;DHT22;30191;50.908;6.962;2024-03-17T12:12:02;14.10;99.90
44487;DHT22;30191;50.908;6.962;2024-03-17T12:14:29;14.20;99.90
44487;DHT22;30191;50.908;6.962;2024-03-17T12:16:59;14.20;99.90
44487;DHT22;30191;50.908;6.962;2024-03-17T12:19:25;14.20;99.90
44487;DHT22;30191;50.908;6.962;2024-03-17T12:21:53;14.20;99.90
44487;DHT22;30191;50.908;6.962;2024-03-17T12:24:24;14.20;99.90
44487;DHT22;30191;50.908;6.962;2024-03-17T12:26:53;14.20;99.90
44487;DHT22;30191;50.908;6.962;2024-03-17T12:29:32;14.20;99.90
44487;DHT22;30191;50.908;6.962;2024-03-17T12:32:00;14.20;99.90
44487;DHT22;30191;50.908;6.962;2024-03-17T12:34:28;14.20;99.90
44487;DHT22;30191;50.908;6.962;2024-03-17T12:36:55;14.20;99.90
44487;DHT22;30191;50.908;6.962;2024-03-17T12:42:10;14.20;99.90
44487;DHT22;30191;50.908;6.962;2024-03-17T12:44:46;14.20;99.90
44487;DHT22;30191;50.908;6.962;2024-03-17T12:47:19;14.20;99.90
44487;DHT22;30191;50.908;6.962;2024-03-17T12:54:55;14.30;99.90
44487;DHT22;30191;50.908;6.962;2024-03-17T12:57:41;14.30;99.90
44487;DHT22;30191;50.908;6.962;2024-03-17T13:00:25;14.30;99.90
44487;DHT22;30191;50.908;6.962;2024-03-17T13:02:57;14.40;99.90
44487;DHT22;30191;50.908;6.962;2024-03-17T13:05:23;14.40;99.90
44487;DHT22;30191;50.908;6.962;2024-03-17T13:07:49;14.40;99.90
44487;DHT22;30191;50.908;6.962;2024-03-17T13:10:16;14.40;99.90
44487;DHT22;30191;50.908;6.962;2024-03-17T13:12:42;14.50;99.90
44487;DHT22;30191;50.908;6.962;2024-03-17T13:15:16;14.40;99.90
44487;DHT22;30191;50.908;6.962;2024-03-17T13:17:43;14.40;99.90
44487;DHT22;30191;50.908;6.962;2024-03-17T13:20:14;14.40;99.90
44487;DHT22;30191;50.908;6.962;2024-03-17T13:22:41;14.40;99.90
44487;DHT22;30191;50.908;6.962;2024-03-17T13:25:36;14.40;99.90
44487;DHT22;30191;50.908;6.962;2024-03-17T13:28:04;14.40;99.90
44487;DHT22;30191;50.908;6.962;2024-03-17T13:30:30;14.40;99.90
44487;DHT22;30191;50.908;6.962;2024-03-17T13:32:57;14.30;99.90
44487;DHT22;30191;50.908;6.962;2024-03-17T13:35:27;14.30;99.90
44487;DHT22;30191;50.908;6.962;2024-03-17T13:37:54;14.30;99.90
44487;DHT22;30191;50.908;6.962;2024-03-17T13:40:21;14.30;99.90
44487;DHT22;30191;50.908;6.962;2024-03-17T13:42:49;14.30;99.90
44487;DHT22;30191;50.908;6.962;2024-03-17T13:45:16;14.30;99.90
44487;DHT22;30191;50.908;6.962;2024-03-17T13:47:45;14.30;99.90
44487;DHT22;30191;50.908;6.962;2024-03-17T13:50:11;14.30;99.90
44487;DHT22;30191;50.908;6.962;2024-03-17T13:52:42;14.30;99.90
44487;DHT22;30191;50.908;6.962;2024-03-17T13:55:17;14.40;99.90
44487;DHT22;30191;50.908;6.962;2024-03-17T13:57:44;14.30;99.90
44487;DHT22;30191;50.908;6.962;2024-03-17T14:00:11;14.40;99.90
44487;DHT22;30191;50.908;6.962;2024-03-17T14:02:42;14.50;99.90
44487;DHT22;30191;50.908;6.962;2024-03-17T14:05:12;14.40;99.90
44487;DHT22;30191;50.908;6.962;2024-03-17T14:07:38;14.40;99.90
44487;DHT22;30191;50.908;6.962;2024-03-17T14:10:04;14.30;99.90
44487;DHT22;30191;50.908;6.962;2024-03-17T14:12:30;14.30;99.90
44487;DHT22;30191;50.908;6.962;2024-03-17T14:14:57;14.30;99.90
44487;DHT22;30191;50.908;6.962;2024-03-17T14:17:23;14.30;99.90
44487;DHT22;30191;50.908;6.962;2024-03-17T14:19:48;14.30;99.90
44487;DHT22;30191;50.908;6.962;2024-03-17T14:22:14;14.40;99.90
44487;DHT22;30191;50.908;6.962;2024-03-17T14:24:40;14.50;99.90
44487;DHT22;30191;50.908;6.962;2024-03-17T14:27:12;14.60;99.90
44487;DHT22;30191;50.908;6.962;2024-03-17T14:29:38;14.60;99.90
44487;DHT22;30191;50.908;6.962;2024-03-17T14:32:04;14.70;99.90
44487;DHT22;30191;50.908;6.962;2024-03-17T14:34:29;14.80;99.90
44487;DHT22;30191;50.908;6.962;2024-03-17T14:37:00;15.00;99.90
44487;DHT22;30191;50.908;6.962;2024-03-17T14:39:26;15.10;99.90
44487;DHT22;30191;50.908;6.962;2024-03-17T14:41:54;15.30;99.90
44487;DHT22;30191;50.908;6.962;2024-03-17T14:44:20;15.40;99.90
44487;DHT22;30191;50.908;6.962;2024-03-17T14:46:47;15.60;99.90
44487;DHT22;30191;50.908;6.962;2024-03-17T14:49:13;15.90;99.90
44487;DHT22;30191;50.908;6.962;2024-03-17T14:51:38;16.30;99.90
44487;DHT22;30191;50.908;6.962;2024-03-17T14:54:04;16.70;99.90
44487;DHT22;30191;50.908;6.962;2024-03-17T14:56:31;17.20;99.90
44487;DHT22;30191;50.908;6.962;2024-03-17T14:58:56;17.90;99.90
44487;DHT22;30191;50.908;6.962;2024-03-17T15:01:22;18.70;99.90
44487;DHT22;30191;50.908;6.962;2024-03-17T15:03:48;19.30;99.90
44487;DHT22;30191;50.908;6.962;2024-03-17T15:06:13;19.70;99.90
44487;DHT22;30191;50.908;6.962;2024-03-17T15:08:41;20.10;99.50
44487;DHT22;30191;50.908;6.962;2024-03-17T15:11:07;20.30;98.60
44487;DHT22;30191;50.908;6.962;2024-03-17T15:13:36;20.50;98.40
44487;DHT22;30191;50.908;6.962;2024-03-17T15:16:03;20.50;98.50
44487;DHT22;30191;50.908;6.962;2024-03-17T15:18:30;20.60;98.20
44487;DHT22;30191;50.908;6.962;2024-03-17T15:20:56;20.60;97.70
44487;DHT22;30191;50.908;6.962;2024-03-17T15:23:22;20.50;98.30
44487;DHT22;30191;50.908;6.962;2024-03-17T15:26:02;20.40;98.00
44487;DHT22;30191;50.908;6.962;2024-03-17T15:28:35;20.10;98.30
44487;DHT22;30191;50.908;6.962;2024-03-17T15:31:07;19.70;98.60
44487;DHT22;30191;50.908;6.962;2024-03-17T15:33:51;19.30;99.10
44487;DHT22;30191;50.908;6.962;2024-03-17T15:36:17;18.90;99.50
44487;DHT22;30191;50.908;6.962;2024-03-17T15:38:45;18.50;99.90
44487;DHT22;30191;50.908;6.962;2024-03-17T15:41:10;18.20;99.90
44487;DHT22;30191;50.908;6.962;2024-03-17T15:43:37;17.90;99.90
44487;DHT22;30191;50.908;6.962;2024-03-17T15:46:18;17.60;99.90
44487;DHT22;30191;50.908;6.962;2024-03-17T15:48:45;17.20;99.90
44487;DHT22;30191;50.908;6.962;2024-03-17T15:51:11;17.00;99.90
44487;DHT22;30191;50.908;6.962;2024-03-17T15:53:37;16.80;99.90
44487;DHT22;30191;50.908;6.962;2024-03-17T15:56:04;16.60;99.90
44487;DHT22;30191;50.908;6.962;2024-03-17T15:58:31;16.60;99.90
44487;DHT22;30191;50.908;6.962;2024-03-17T16:00:58;16.60;99.90
44487;DHT22;30191;50.908;6.962;2024-03-17T16:03:31;16.50;99.90
44487;DHT22;30191;50.908;6.962;2024-03-17T16:06:03;16.50;99.90
44487;DHT22;30191;50.908;6.962;2024-03-17T16:08:43;16.40;99.90
44487;DHT22;30191;50.908;6.962;2024-03-17T16:11:15;16.40;99.90
44487;DHT22;30191;50.908;6.962;2024-03-17T16:13:43;16.40;99.90
44487;DHT22;30191;50.908;6.962;2024-03-17T16:16:16;16.40;99.90
44487;DHT22;30191;50.908;6.962;2024-03-17T16:18:41;16.40;99.90
44487;DHT22;30191;50.908;6.962;2024-03-17T16:21:18;16.50;99.90
44487;DHT22;30191;50.908;6.962;2024-03-17T16:24:10;16.60;99.90
44487;DHT22;30191;50.908;6.962;2024-03-17T16:26:35;16.80;99.90
44487;DHT22;30191;50.908;6.962;2024-03-17T16:29:03;16.80;99.90